Time;durP1;ratioP1;P1;durP2;ratioP2;P2;SDS_P1;SDS_P2;PMS_P1;PMS_P2;Temp;Humidity;BMP_temperature;BMP_pressure;BME280_temperature;BME280_humidity;BME280_pressure;Samples;Min_cycle;Max_cycle;Signal;HPM_P1;HPM_P2
2023/12/26 00:02:23;;;;;;;44.40;24.55;;;;;;;8.07;78.09;101545.47;4989986;28;20057;-80
2023/12/26 00:04:56;;;;;;;45.63;26.33;;;;;;;8.00;77.93;101540.66;4985142;28;20372;-81
2023/12/26 00:07:23;;;;;;;45.17;25.20;;;;;;;7.89;77.93;101523.69;4997236;28;20065;-80
2023/12/26 00:09:50;;;;;;;50.67;25.73;;;;;;;7.95;78.12;101526.88;4964657;28;20477;-79
2023/12/26 00:12:17;;;;;;;42.80;24.63;;;;;;;7.41;77.61;101450.97;4991130;28;20053;-80
2023/12/26 00:14:43;;;;;;;40.00;25.50;;;;;;;7.80;77.81;101537.47;4988803;28;20056;-81
2023/12/26 00:17:10;;;;;;;41.33;24.63;;;;;;;7.79;78.60;101538.44;4963039;28;20428;-80
2023/12/26 00:19:43;;;;;;;44.97;27.13;;;;;;;7.74;78.37;101537.84;4987122;28;20381;-79
2023/12/26 00:22:13;;;;;;;39.65;24.40;;;;;;;7.79;78.42;101541.06;4991342;28;20060;-79
2023/12/26 00:24:39;;;;;;;40.78;24.02;;;;;;;7.76;78.14;101528.03;4992682;28;20211;-81
2023/12/26 00:27:06;;;;;;;45.97;24.15;;;;;;;7.84;77.79;101538.13;4980944;28;20385;-80
2023/12/26 00:29:35;;;;;;;45.90;24.98;;;;;;;7.69;77.74;101526.72;4942194;28;20355;-81
2023/12/26 00:32:11;;;;;;;47.53;24.83;;;;;;;7.70;77.43;101542.50;4986547;28;20229;-81
2023/12/26 00:34:38;;;;;;;33.58;22.60;;;;;;;7.11;77.44;101456.31;4993313;28;20873;-81
2023/12/26 00:37:05;;;;;;;36.95;22.38;;;;;;;7.43;77.41;101513.34;4988032;28;20057;-78
2023/12/26 00:39:38;;;;;;;29.30;20.40;;;;;;;7.69;77.11;101547.84;4988658;28;20041;-80
2023/12/26 00:42:07;;;;;;;38.22;22.23;;;;;;;7.43;77.44;101526.53;4943896;28;20097;-79
2023/12/26 00:44:38;;;;;;;38.03;19.73;;;;;;;7.49;77.53;101542.00;4989354;28;20184;-81
2023/12/26 00:47:05;;;;;;;33.33;18.20;;;;;;;7.53;78.01;101540.03;4969811;28;20049;-81
2023/12/26 00:49:32;;;;;;;24.38;16.85;;;;;;;7.58;77.38;101543.25;4984395;28;20560;-81
2023/12/26 00:51:59;;;;;;;31.83;17.85;;;;;;;7.69;77.22;101547.84;4973100;28;20505;-81
2023/12/26 00:54:26;;;;;;;24.63;16.75;;;;;;;7.59;77.32;101552.00;4984837;28;20045;-83
2023/12/26 00:56:53;;;;;;;31.10;17.77;;;;;;;7.42;77.78;101530.09;4993339;28;20045;-79
2023/12/26 00:59:20;;;;;;;30.55;17.33;;;;;;;7.53;78.02;101545.31;4987785;28;20056;-80
2023/12/26 01:01:47;;;;;;;34.60;16.58;;;;;;;7.47;78.08;101545.69;4984930;28;20302;-80
2023/12/26 01:04:16;;;;;;;28.08;16.30;;;;;;;6.34;78.58;101376.47;4990112;28;20050;-80
2023/12/26 01:06:43;;;;;;;30.42;17.05;;;;;;;7.24;78.62;101510.09;4976721;28;20585;-81
2023/12/26 01:09:10;;;;;;;34.28;16.73;;;;;;;7.12;78.87;101502.94;4966597;28;20050;-81
2023/12/26 01:11:37;;;;;;;29.10;15.68;;;;;;;7.27;78.73;101531.88;4985626;28;20390;-81
2023/12/26 01:14:07;;;;;;;28.58;17.77;;;;;;;7.34;79.30;101548.22;4982909;28;20326;-78
2023/12/26 01:16:34;;;;;;;35.53;16.88;;;;;;;7.22;78.55;101530.47;4987649;28;20581;-81
2023/12/26 01:19:01;;;;;;;22.30;15.07;;;;;;;7.12;78.69;101514.34;5000304;28;20461;-80
2023/12/26 01:21:28;;;;;;;27.38;17.08;;;;;;;7.12;78.75;101524.91;4993764;28;20045;-82
2023/12/26 01:23:55;;;;;;;31.17;17.58;;;;;;;7.15;78.96;101531.78;4989814;28;20045;-82
2023/12/26 01:26:25;;;;;;;32.70;18.42;;;;;;;7.21;79.07;101542.84;4983674;28;20125;-81
2023/12/26 01:28:52;;;;;;;28.08;17.65;;;;;;;7.18;79.22;101544.78;4984750;28;20084;-78
2023/12/26 01:31:22;;;;;;;37.50;19.90;;;;;;;6.97;79.21;101502.91;4990815;28;20056;-81
2023/12/26 01:33:49;;;;;;;28.23;17.80;;;;;;;7.20;79.19;101542.91;4991869;28;20054;-78
2023/12/26 01:36:16;;;;;;;38.55;17.70;;;;;;;7.21;79.22;101547.28;4987689;28;20558;-82
2023/12/26 01:38:43;;;;;;;30.80;18.42;;;;;;;7.14;79.16;101543.31;4994131;28;20045;-79
2023/12/26 01:41:10;;;;;;;29.83;18.80;;;;;;;7.02;78.59;101485.00;4997570;28;20072;-81
2023/12/26 01:43:37;;;;;;;27.95;18.27;;;;;;;7.44;78.19;101548.53;4999760;28;20504;-81
2023/12/26 01:46:04;;;;;;;37.53;18.63;;;;;;;7.19;78.01;101507.75;4981251;28;20050;-81
2023/12/26 01:48:31;;;;;;;31.63;18.20;;;;;;;7.36;77.93;101548.97;4983865;28;20533;-82
2023/12/26 01:51:02;;;;;;;31.10;17.75;;;;;;;7.26;77.72;101539.91;4996087;28;20045;-80
2023/12/26 01:53:31;;;;;;;30.17;18.80;;;;;;;7.24;77.99;101536.53;5003074;28;20409;-79
2023/12/26 01:55:59;;;;;;;37.80;19.45;;;;;;;7.17;78.04;101530.75;5001311;28;20049;-80
2023/12/26 01:58:26;;;;;;;37.42;20.90;;;;;;;7.02;77.28;101478.88;4994566;28;20053;-78
2023/12/26 02:00:58;;;;;;;30.08;20.98;;;;;;;7.46;77.04;101542.19;4990208;28;20079;-80
2023/12/26 02:03:26;;;;;;;37.85;20.40;;;;;;;7.28;77.03;101527.44;4981480;28;20046;-80
2023/12/26 02:05:53;;;;;;;29.70;17.92;;;;;;;6.84;77.03;101486.06;4991883;28;20041;-80
2023/12/26 02:08:29;;;;;;;33.53;20.25;;;;;;;7.14;77.77;101536.22;4991290;28;20128;-80
2023/12/26 02:10:59;;;;;;;28.13;18.98;;;;;;;7.27;77.44;101546.91;4987845;28;20045;-80
2023/12/26 02:13:26;;;;;;;30.73;18.92;;;;;;;7.11;77.00;101520.53;4999565;28;20795;-80
2023/12/26 02:16:01;;;;;;;28.02;17.83;;;;;;;7.17;77.51;101540.47;4978539;28;20552;-82
2023/12/26 02:18:28;;;;;;;;;;;;;;;7.06;78.24;101544.59;4956626;28;20054;-80
2023/12/26 02:20:55;;;;;;;36.63;19.58;;;;;;;7.01;77.21;101501.75;4968295;28;20339;-77
2023/12/26 02:23:27;;;;;;;28.38;19.00;;;;;;;7.21;77.27;101542.84;4977663;28;20046;-80
2023/12/26 02:25:55;;;;;;;33.72;19.73;;;;;;;7.16;77.12;101515.84;4965419;28;20153;-80
2023/12/26 02:28:22;;;;;;;34.97;19.90;;;;;;;7.30;76.79;101530.00;4960822;28;20050;-81
2023/12/26 02:30:51;;;;;;;30.33;19.70;;;;;;;6.82;76.72;101457.16;4991600;28;20053;-80
2023/12/26 02:33:18;;;;;;;27.15;18.25;;;;;;;7.12;77.61;101531.97;4993186;28;20456;-80
2023/12/26 02:35:49;;;;;;;31.33;20.75;;;;;;;6.96;77.52;101517.03;4971445;28;20405;-82
2023/12/26 02:38:18;;;;;;;35.50;19.55;;;;;;;7.05;77.34;101532.31;4988010;28;20056;-80
2023/12/26 02:40:45;;;;;;;30.05;19.95;;;;;;;7.04;77.02;101525.34;4976204;28;20350;-79
2023/12/26 02:43:20;;;;;;;32.13;19.98;;;;;;;6.93;76.94;101514.56;4954542;28;20441;-81
2023/12/26 02:45:55;;;;;;;32.97;19.52;;;;;;;6.93;77.11;101517.22;4934798;28;20219;-81
2023/12/26 02:48:22;;;;;;;40.50;19.48;;;;;;;6.51;77.34;101463.38;4965670;28;20046;-80
2023/12/26 02:50:50;;;;;;;34.10;20.02;;;;;;;6.92;77.62;101525.22;4967520;28;20057;-77
2023/12/26 02:53:17;;;;;;;31.65;20.73;;;;;;;6.93;77.08;101530.41;4989299;28;20042;-78
2023/12/26 02:55:50;;;;;;;31.60;20.80;;;;;;;6.78;76.81;101492.56;4970249;28;20054;-81
2023/12/26 02:58:16;;;;;;;34.63;22.10;;;;;;;6.62;76.67;101471.50;4989284;28;20472;-80
2023/12/26 03:00:50;;;;;;;31.75;20.20;;;;;;;6.84;76.02;101521.25;4971466;28;20131;-81
2023/12/26 03:03:21;;;;;;;27.98;20.63;;;;;;;6.80;76.43;101518.88;4958029;28;20093;-81
2023/12/26 03:05:48;;;;;;;32.60;22.02;;;;;;;6.77;76.64;101521.69;4981557;28;20314;-80
2023/12/26 03:08:15;;;;;;;31.70;19.95;;;;;;;6.63;76.46;101507.50;4986727;28;20520;-80
2023/12/26 03:10:52;;;;;;;29.10;20.60;;;;;;;6.58;76.74;101503.44;4952076;28;20525;-80
2023/12/26 03:13:33;;;;;;;37.83;20.55;;;;;;;6.48;76.92;101481.16;4971111;28;20506;-81
2023/12/26 03:16:08;;;;;;;30.73;21.75;;;;;;;6.69;76.89;101511.56;4983971;28;20072;-80
2023/12/26 03:18:35;;;;;;;33.35;20.33;;;;;;;6.54;76.89;101492.22;4984832;28;20132;-78
2023/12/26 03:21:05;;;;;;;36.65;21.45;;;;;;;6.66;76.91;101487.16;4994107;28;20092;-80
2023/12/26 03:23:32;;;;;;;29.13;20.20;;;;;;;6.60;76.09;101489.22;4993702;28;20168;-80
2023/12/26 03:25:58;;;;;;;34.97;21.55;;;;;;;6.52;76.37;101480.88;4987468;28;20463;-79
2023/12/26 03:28:32;;;;;;;31.70;20.05;;;;;;;6.76;76.62;101504.16;4968803;28;20050;-80
2023/12/26 03:31:04;;;;;;;38.35;19.95;;;;;;;6.65;76.56;101499.53;4965498;28;20174;-79
2023/12/26 03:33:30;;;;;;;29.15;19.90;;;;;;;6.54;76.96;101488.72;4975000;28;20053;-79
2023/12/26 03:35:57;;;;;;;26.83;18.15;;;;;;;6.58;77.27;101506.09;4979472;28;20430;-79
2023/12/26 03:38:27;;;;;;;33.70;20.42;;;;;;;6.58;76.99;101512.22;4971450;28;20065;-80
2023/12/26 03:40:54;;;;;;;30.63;18.75;;;;;;;6.49;77.58;101489.00;4973052;28;20053;-79
2023/12/26 03:43:25;;;;;;;28.63;18.85;;;;;;;6.54;77.60;101499.28;4983237;28;20069;-80
2023/12/26 03:46:06;;;;;;;30.08;18.90;;;;;;;6.56;77.90;101500.88;4970008;28;20886;-79
2023/12/26 03:48:33;;;;;;;26.95;18.80;;;;;;;6.55;77.28;101496.56;4985191;28;20056;-80
2023/12/26 03:51:00;;;;;;;30.80;19.60;;;;;;;6.09;77.42;101413.94;4986160;28;20069;-80
2023/12/26 03:53:27;;;;;;;31.05;19.45;;;;;;;6.60;77.41;101491.88;4998531;28;20061;-79
2023/12/26 03:55:53;;;;;;;26.00;19.02;;;;;;;6.57;76.95;101473.56;4976164;28;20312;-80
2023/12/26 03:58:20;;;;;;;29.77;19.25;;;;;;;6.76;76.79;101499.72;4971825;28;20122;-79
2023/12/26 04:00:47;;;;;;;28.30;17.63;;;;;;;6.80;77.14;101495.13;4993133;28;20945;-80
2023/12/26 04:03:16;;;;;;;23.90;17.13;;;;;;;6.80;77.04;101503.91;4988617;28;20287;-79
2023/12/26 04:05:45;;;;;;;23.70;16.92;;;;;;;6.39;77.03;101437.72;4982587;28;20169;-81
2023/12/26 04:08:16;;;;;;;31.55;19.00;;;;;;;6.75;76.93;101499.84;4973915;28;20042;-80
2023/12/26 04:10:43;;;;;;;26.60;18.17;;;;;;;6.72;77.04;101500.00;4979787;28;20794;-79
2023/12/26 04:13:11;;;;;;;23.70;18.17;;;;;;;6.52;76.80;101478.25;4986940;28;20057;-79
2023/12/26 04:15:37;;;;;;;26.23;17.60;;;;;;;6.66;76.52;101513.56;4991019;28;20067;-79
2023/12/26 04:18:09;;;;;;;28.60;17.52;;;;;;;6.57;76.63;101491.19;4971431;28;20107;-82
2023/12/26 04:20:46;;;;;;;24.65;17.27;;;;;;;6.15;76.67;101425.00;4980252;28;20046;-83
2023/12/26 04:23:22;;;;;;;23.42;15.93;;;;;;;6.46;76.71;101480.38;4932150;28;20071;-82
2023/12/26 04:25:53;;;;;;;27.13;16.45;;;;;;;6.16;76.90;101436.38;4979023;28;20041;-82
2023/12/26 04:28:20;;;;;;;25.55;16.65;;;;;;;6.56;77.06;101502.69;4976677;28;20054;-82
2023/12/26 04:30:48;;;;;;;25.42;17.63;;;;;;;6.54;77.08;101500.13;4949826;28;20054;-81
2023/12/26 04:33:16;;;;;;;25.38;16.25;;;;;;;6.53;76.88;101506.34;4967205;28;20233;-79
2023/12/26 04:35:43;;;;;;;23.33;15.57;;;;;;;5.59;76.59;101355.25;4971044;28;20319;-79
2023/12/26 04:38:10;;;;;;;27.30;16.75;;;;;;;6.23;76.82;101468.53;4972209;28;20480;-81
2023/12/26 04:40:37;;;;;;;24.05;16.15;;;;;;;5.48;76.70;101339.19;4975407;28;20300;-81
2023/12/26 04:43:08;;;;;;;18.05;15.20;;;;;;;6.49;76.96;101502.19;4987814;28;20428;-81
2023/12/26 04:45:37;;;;;;;21.25;15.82;;;;;;;6.60;76.67;101498.91;4992806;28;20069;-79
2023/12/26 04:48:10;;;;;;;23.70;15.80;;;;;;;6.56;76.65;101492.97;4995770;28;20045;-82
2023/12/26 04:50:41;;;;;;;25.23;17.52;;;;;;;6.67;76.67;101502.06;4996813;28;20477;-81
2023/12/26 04:53:10;;;;;;;22.45;15.55;;;;;;;6.56;76.78;101502.69;5002105;28;20485;-81
2023/12/26 04:55:37;;;;;;;23.02;14.25;;;;;;;6.50;76.71;101498.59;4992818;28;20442;-80
2023/12/26 04:58:04;;;;;;;18.45;14.50;;;;;;;6.18;76.77;101448.53;4985004;28;20435;-79
2023/12/26 05:00:33;;;;;;;23.45;15.45;;;;;;;6.45;76.82;101498.00;4998181;28;20038;-77
2023/12/26 05:03:03;;;;;;;18.52;14.35;;;;;;;6.29;77.35;101476.09;5001858;28;20933;-79
2023/12/26 05:05:30;;;;;;;20.20;14.77;;;;;;;6.49;77.70;101503.97;4988653;28;20591;-80
2023/12/26 05:08:00;;;;;;;23.15;14.27;;;;;;;6.57;77.89;101494.66;4966673;28;20050;-80
2023/12/26 05:10:27;;;;;;;18.67;13.23;;;;;;;6.54;77.39;101481.66;4978334;28;20045;-80
2023/12/26 05:12:54;;;;;;;23.38;14.70;;;;;;;6.70;77.64;101504.50;4993600;28;20045;-80
2023/12/26 05:15:21;;;;;;;20.23;13.38;;;;;;;6.31;77.01;101458.38;4995680;28;20072;-82
2023/12/26 05:17:48;;;;;;;22.45;14.50;;;;;;;6.12;77.64;101441.00;4997008;28;20049;-81
2023/12/26 05:20:15;;;;;;;20.45;14.20;;;;;;;6.51;77.63;101495.03;5000783;28;20466;-80
2023/12/26 05:22:56;;;;;;;23.33;14.70;;;;;;;6.74;77.04;101506.03;5005255;28;20049;-81
2023/12/26 05:25:24;;;;;;;29.63;15.57;;;;;;;6.40;76.92;101439.41;4976216;28;20056;-82
2023/12/26 05:27:51;;;;;;;21.30;14.15;;;;;;;6.68;76.79;101506.41;4971004;28;20524;-82
2023/12/26 05:30:18;;;;;;;19.73;12.50;;;;;;;6.08;76.97;101412.25;4973395;28;20667;-82
2023/12/26 05:32:48;;;;;;;22.88;14.35;;;;;;;6.44;77.11;101469.94;4972794;28;20331;-81
2023/12/26 05:35:15;;;;;;;25.33;14.90;;;;;;;6.59;76.95;101497.22;4972011;28;20459;-82
2023/12/26 05:37:46;;;;;;;23.58;14.55;;;;;;;6.73;77.03;101520.19;4937831;28;20049;-83
2023/12/26 05:40:15;;;;;;;21.23;15.50;;;;;;;6.17;77.04;101440.72;4958080;28;20049;-81
2023/12/26 05:42:50;;;;;;;27.38;15.05;;;;;;;6.55;77.40;101512.41;4972127;28;20504;-80
2023/12/26 05:45:21;;;;;;;22.23;14.55;;;;;;;6.56;77.78;101519.34;5002416;28;20053;-82
2023/12/26 05:47:52;;;;;;;22.35;15.45;;;;;;;6.37;77.58;101492.34;4997879;28;20129;-82
2023/12/26 05:50:19;;;;;;;20.35;15.30;;;;;;;6.53;77.71;101511.63;4967082;28;20484;-79
2023/12/26 05:52:46;;;;;;;30.17;15.73;;;;;;;6.59;77.49;101513.91;4952155;28;20056;-80
2023/12/26 05:55:13;;;;;;;19.60;14.45;;;;;;;6.57;77.23;101515.75;4980221;28;20357;-79
2023/12/26 05:57:44;;;;;;;29.85;15.07;;;;;;;6.64;77.23;101527.66;4993148;28;20084;-81
2023/12/26 06:00:19;;;;;;;19.90;14.50;;;;;;;6.50;76.67;101519.69;4974623;28;20092;-81
2023/12/26 06:02:46;;;;;;;28.67;16.23;;;;;;;6.52;77.35;101527.53;4991741;28;20061;-80
2023/12/26 06:05:13;;;;;;;25.42;13.70;;;;;;;6.62;77.38;101526.91;4994454;28;20076;-81
2023/12/26 06:07:40;;;;;;;29.40;15.90;;;;;;;6.73;76.49;101520.19;4985792;28;20237;-79
2023/12/26 06:10:07;;;;;;;36.92;16.40;;;;;;;6.75;76.74;101523.59;4971523;28;20084;-81
2023/12/26 06:12:36;;;;;;;24.73;14.52;;;;;;;6.73;76.42;101496.44;4967041;28;20120;-80
2023/12/26 06:15:03;;;;;;;23.48;15.45;;;;;;;6.93;75.04;101503.16;4985774;28;20481;-79
2023/12/26 06:17:30;;;;;;;31.33;15.45;;;;;;;7.14;74.44;101524.81;4999094;28;20056;-79
2023/12/26 06:19:57;;;;;;;20.77;14.35;;;;;;;6.63;75.80;101498.75;4998913;28;20540;-80
2023/12/26 06:22:24;;;;;;;22.50;15.25;;;;;;;6.42;76.33;101471.81;5005634;28;20050;-80
2023/12/26 06:24:55;;;;;;;24.30;14.70;;;;;;;6.73;76.65;101525.47;4989523;28;20049;-81
2023/12/26 06:27:24;;;;;;;18.20;13.60;;;;;;;6.61;77.07;101524.38;4990784;28;20049;-81
2023/12/26 06:29:51;;;;;;;17.95;12.38;;;;;;;6.56;77.37;101524.63;5001633;28;20119;-80
2023/12/26 06:32:17;;;;;;;19.23;15.02;;;;;;;6.15;77.24;101471.59;4990142;28;20408;-80
2023/12/26 06:34:45;;;;;;;20.30;13.98;;;;;;;6.37;77.45;101514.28;4994622;28;20783;-80
2023/12/26 06:37:15;;;;;;;21.03;13.47;;;;;;;6.14;77.88;101483.94;4999368;28;20451;-80
2023/12/26 06:39:43;;;;;;;19.80;14.63;;;;;;;6.44;78.11;101545.59;4996128;28;20426;-81
2023/12/26 06:42:11;;;;;;;21.40;14.30;;;;;;;6.35;77.88;101541.69;5002740;28;20049;-80
2023/12/26 06:44:40;;;;;;;23.55;13.77;;;;;;;6.39;77.85;101554.59;4997604;28;20516;-80
2023/12/26 06:47:07;;;;;;;21.63;14.05;;;;;;;6.28;78.17;101537.69;4997315;28;20073;-81
2023/12/26 06:49:34;;;;;;;18.13;12.98;;;;;;;6.25;77.84;101532.59;4993347;28;20046;-80
2023/12/26 06:52:02;;;;;;;20.65;13.60;;;;;;;6.30;77.98;101559.53;5004188;28;20343;-81
2023/12/26 06:54:32;;;;;;;17.77;12.85;;;;;;;5.87;78.49;101483.63;4999178;28;20066;-80
2023/12/26 06:57:07;;;;;;;;;;;;;;;6.29;78.65;101563.13;4995112;28;20049;-80
2023/12/26 06:59:34;;;;;;;16.33;12.52;;;;;;;6.31;78.84;101570.03;5000957;28;19929;-79
2023/12/26 07:02:01;;;;;;;16.92;13.68;;;;;;;6.34;78.80;101574.28;4920937;28;20486;-78
2023/12/26 07:04:28;;;;;;;25.27;14.73;;;;;;;6.12;78.46;101535.91;4949626;28;20050;-80
2023/12/26 07:06:55;;;;;;;18.65;13.50;;;;;;;6.20;78.65;101554.78;4959073;28;20046;-78
2023/12/26 07:09:21;;;;;;;20.60;12.90;;;;;;;6.34;78.44;101575.13;4958629;28;20895;-80
2023/12/26 07:11:50;;;;;;;17.98;12.43;;;;;;;5.91;78.57;101505.41;4958733;28;20129;-79
2023/12/26 07:14:17;;;;;;;21.10;12.88;;;;;;;6.36;79.00;101578.53;4960975;28;20475;-79
2023/12/26 07:16:48;;;;;;;16.08;10.77;;;;;;;6.42;79.65;101577.31;4954342;28;20077;-80
2023/12/26 07:19:17;;;;;;;18.75;10.73;;;;;;;6.12;79.56;101517.44;4962006;28;20422;-79
2023/12/26 07:21:44;;;;;;;17.00;9.52;;;;;;;6.60;80.52;101581.56;4955391;28;20065;-81
2023/12/26 07:24:11;;;;;;;23.58;11.43;;;;;;;6.58;79.34;101579.97;4954894;28;20046;-80
2023/12/26 07:26:38;;;;;;;18.08;10.68;;;;;;;6.19;79.27;101532.00;4947568;28;20433;-79
2023/12/26 07:29:05;;;;;;;15.48;9.98;;;;;;;6.53;79.35;101589.91;4960620;28;20138;-80
2023/12/26 07:31:34;;;;;;;15.73;9.98;;;;;;;6.49;79.30;101586.59;4956815;28;20473;-80
2023/12/26 07:34:04;;;;;;;19.85;10.13;;;;;;;6.51;79.40;101584.72;4958676;28;20184;-79
2023/12/26 07:36:31;;;;;;;16.08;9.02;;;;;;;6.66;79.67;101600.63;4947761;28;20866;-80
2023/12/26 07:38:58;;;;;;;19.17;10.15;;;;;;;6.56;79.34;101571.28;4952406;28;20458;-79
2023/12/26 07:41:24;;;;;;;14.88;8.48;;;;;;;6.80;79.66;101587.50;4962204;28;20178;-79
2023/12/26 07:43:53;;;;;;;13.55;10.63;;;;;;;6.85;79.85;101594.22;4957372;28;20374;-80
2023/12/26 07:46:21;;;;;;;16.45;10.68;;;;;;;6.92;79.52;101593.84;4958853;28;20381;-80
2023/12/26 07:48:47;;;;;;;12.25;8.93;;;;;;;6.87;79.80;101601.19;4963109;28;20334;-81
2023/12/26 07:51:15;;;;;;;14.48;9.88;;;;;;;6.98;80.11;101610.19;4937467;28;20062;-79
2023/12/26 07:53:41;;;;;;;17.27;9.85;;;;;;;6.99;79.87;101608.38;4942226;28;20043;-80
2023/12/26 07:56:08;;;;;;;14.18;9.18;;;;;;;6.95;80.02;101598.97;4952500;28;20054;-79
2023/12/26 07:58:36;;;;;;;15.77;8.65;;;;;;;7.03;80.74;101610.75;4954591;28;20668;-79
2023/12/26 08:01:07;;;;;;;16.77;9.18;;;;;;;7.10;80.90;101607.78;4940440;28;20038;-80
2023/12/26 08:03:34;;;;;;;15.73;9.15;;;;;;;7.23;80.94;101609.63;4958002;28;20051;-80
2023/12/26 08:06:01;;;;;;;14.77;9.13;;;;;;;7.05;80.29;101574.56;4950117;28;20046;-80
2023/12/26 08:08:31;;;;;;;12.18;8.60;;;;;;;7.13;80.23;101589.97;4954138;28;20629;-79
2023/12/26 08:10:58;;;;;;;15.73;8.63;;;;;;;7.32;80.35;101613.50;4950035;28;20047;-81
2023/12/26 08:13:25;;;;;;;11.73;9.00;;;;;;;7.47;80.28;101614.38;4956327;28;20052;-80
2023/12/26 08:15:53;;;;;;;14.48;9.65;;;;;;;7.54;79.94;101617.50;4949286;28;20340;-79
2023/12/26 08:18:20;;;;;;;15.43;9.10;;;;;;;7.42;80.25;101596.16;4950330;28;20046;-80
2023/12/26 08:20:47;;;;;;;19.13;9.45;;;;;;;7.38;79.95;101584.09;4939553;28;20213;-81
2023/12/26 08:23:17;;;;;;;14.52;10.02;;;;;;;7.47;80.14;101596.72;4935743;28;20141;-81
2023/12/26 08:25:44;;;;;;;16.35;9.45;;;;;;;7.62;79.24;101615.25;4945173;28;20660;-80
2023/12/26 08:28:10;;;;;;;17.38;10.18;;;;;;;7.74;79.36;101624.22;4954195;28;20676;-81
2023/12/26 08:30:40;;;;;;;21.45;10.73;;;;;;;7.71;79.86;101634.03;4955518;28;20054;-82
2023/12/26 08:33:07;;;;;;;30.17;10.80;;;;;;;7.81;79.93;101638.78;4942506;28;20054;-81
2023/12/26 08:35:34;;;;;;;21.65;12.15;;;;;;;7.81;79.44;101634.34;4954741;28;20389;-80
2023/12/26 08:38:03;;;;;;;13.55;9.90;;;;;;;7.79;79.99;101617.75;4953628;28;20055;-80
2023/12/26 08:40:32;;;;;;;16.95;10.63;;;;;;;7.93;79.47;101635.38;4958233;28;20146;-81
2023/12/26 08:43:02;;;;;;;24.15;12.82;;;;;;;7.91;79.46;101622.28;4954395;28;20433;-80
2023/12/26 08:45:31;;;;;;;23.48;11.80;;;;;;;8.01;79.26;101642.84;4957826;28;20046;-80
2023/12/26 08:47:59;;;;;;;15.93;10.80;;;;;;;7.99;79.67;101642.94;4956258;28;20316;-82
2023/12/26 08:50:26;;;;;;;17.23;11.20;;;;;;;7.86;79.15;101616.44;4955714;28;20117;-80
2023/12/26 08:52:53;;;;;;;15.52;11.27;;;;;;;8.08;78.71;101645.03;4954622;28;20059;-79
2023/12/26 08:55:20;;;;;;;16.92;10.77;;;;;;;8.24;77.89;101658.13;4953158;28;20105;-81
2023/12/26 08:57:47;;;;;;;18.20;11.13;;;;;;;8.23;78.45;101637.94;4954025;28;20057;-80
2023/12/26 09:00:15;;;;;;;21.85;11.65;;;;;;;8.10;77.98;101608.72;4954704;28;20050;-81
2023/12/26 09:02:43;;;;;;;23.90;11.73;;;;;;;8.37;77.51;101642.34;4954954;28;20547;-80
2023/12/26 09:05:25;;;;;;;15.88;10.95;;;;;;;8.61;77.30;101666.44;4960382;28;20121;-80
2023/12/26 09:07:52;;;;;;;21.50;10.63;;;;;;;8.69;76.56;101661.53;4955233;28;20109;-81
2023/12/26 09:10:20;;;;;;;23.00;11.52;;;;;;;8.74;76.71;101661.22;4959736;28;20185;-80
2023/12/26 09:12:48;;;;;;;18.88;12.73;;;;;;;8.84;76.48;101664.97;4957827;28;20077;-81
2023/12/26 09:15:22;;;;;;;16.38;11.05;;;;;;;8.83;76.36;101651.81;4948619;28;20098;-80
2023/12/26 09:17:56;;;;;;;19.58;11.10;;;;;;;8.90;76.21;101658.44;4923978;28;20069;-80
2023/12/26 09:20:27;;;;;;;19.30;10.85;;;;;;;9.01;76.09;101666.53;4926785;28;20420;-80
2023/12/26 09:22:54;;;;;;;16.55;10.63;;;;;;;9.14;75.57;101677.16;4945497;28;20769;-80
2023/12/26 09:25:21;;;;;;;16.00;9.15;;;;;;;9.19;75.32;101680.34;4957413;28;20569;-81
2023/12/26 09:27:48;;;;;;;16.48;10.60;;;;;;;8.91;75.32;101633.66;4954507;28;20049;-79
2023/12/26 09:30:22;;;;;;;19.55;10.70;;;;;;;9.30;75.51;101677.84;4947585;28;20476;-81
2023/12/26 09:33:13;;;;;;;24.63;10.23;;;;;;;9.34;74.94;101662.59;4926059;28;20407;-81
2023/12/26 09:35:44;;;;;;;28.23;10.90;;;;;;;9.34;74.87;101649.34;4922169;28;20053;-81
2023/12/26 09:38:14;;;;;;;17.80;8.95;;;;;;;9.68;74.67;101681.53;4953692;28;20140;-80
2023/12/26 09:40:43;;;;;;;22.38;9.85;;;;;;;9.53;74.62;101636.53;4953140;28;20054;-81
2023/12/26 09:43:10;;;;;;;16.15;9.75;;;;;;;9.92;75.35;101679.00;4948112;28;20890;-80
2023/12/26 09:45:37;;;;;;;18.80;9.77;;;;;;;10.04;74.78;101683.44;4956104;28;20417;-81
2023/12/26 09:48:04;;;;;;;15.57;9.43;;;;;;;9.92;74.59;101649.81;4960322;28;20046;-80
2023/12/26 09:50:34;;;;;;;15.32;8.35;;;;;;;10.03;73.92;101645.47;4957946;28;20486;-81
2023/12/26 09:53:04;;;;;;;13.82;8.30;;;;;;;10.37;73.63;101688.25;4954165;28;20120;-80
2023/12/26 09:55:33;;;;;;;17.05;10.07;;;;;;;10.46;73.22;101700.00;4953824;28;20046;-81
2023/12/26 09:58:02;;;;;;;24.85;9.75;;;;;;;10.41;73.21;101687.06;4960827;28;20680;-81
2023/12/26 10:00:29;;;;;;;15.18;9.30;;;;;;;10.41;73.47;101680.88;4953722;28;20359;-79
2023/12/26 10:02:57;;;;;;;18.92;9.73;;;;;;;10.26;73.62;101650.94;4951704;28;20142;-80
2023/12/26 10:05:27;;;;;;;13.50;7.47;;;;;;;10.37;73.65;101668.81;4935923;28;20347;-82
2023/12/26 10:07:54;;;;;;;12.45;7.32;;;;;;;10.56;73.98;101697.53;4960715;28;20434;-81
2023/12/26 10:10:21;;;;;;;19.90;9.10;;;;;;;10.53;73.15;101680.00;4941776;28;20050;-80
2023/12/26 10:12:49;;;;;;;12.45;6.35;;;;;;;10.56;72.83;101668.31;4965192;28;20273;-80
2023/12/26 10:15:17;;;;;;;15.10;7.22;;;;;;;10.63;73.48;101688.16;4954583;28;20562;-77
2023/12/26 10:17:46;;;;;;;19.20;8.43;;;;;;;10.26;73.32;101630.56;4957263;28;20073;-80
2023/12/26 10:20:17;;;;;;;17.08;7.85;;;;;;;10.64;73.54;101676.59;4959866;28;20140;-80
2023/12/26 10:22:44;;;;;;;17.13;6.80;;;;;;;10.74;72.90;101676.78;4955863;28;20136;-79
2023/12/26 10:25:14;;;;;;;20.15;7.15;;;;;;;10.68;72.59;101662.16;4953485;28;20046;-80
2023/12/26 10:27:41;;;;;;;15.90;7.55;;;;;;;10.81;72.68;101673.56;4965309;28;20395;-80
2023/12/26 10:30:07;;;;;;;14.80;6.68;;;;;;;10.63;72.45;101632.41;4962219;28;20391;-81
2023/12/26 10:32:37;;;;;;;17.77;7.07;;;;;;;10.79;72.43;101650.75;4956897;28;20062;-79
2023/12/26 10:35:14;;;;;;;;;;;;;;;10.94;72.53;101667.34;4960226;28;20109;-79
2023/12/26 10:37:41;;;;;;;16.17;7.45;;;;;;;11.08;71.90;101661.88;4955636;28;19921;-79
2023/12/26 10:40:09;;;;;;;15.63;4.93;;;;;;;11.01;70.85;101610.16;4962638;28;20504;-81
2023/12/26 10:42:44;;;;;;;13.45;5.35;;;;;;;11.37;70.26;101658.84;4952654;28;20062;-81
2023/12/26 10:45:14;;;;;;;10.35;4.75;;;;;;;11.48;70.36;101657.09;4964442;28;20046;-79
2023/12/26 10:47:46;;;;;;;12.82;4.93;;;;;;;11.51;69.67;101661.31;4955808;28;20120;-80
2023/12/26 10:50:14;;;;;;;12.65;5.93;;;;;;;11.58;69.29;101654.56;4954121;28;20046;-79
2023/12/26 10:53:04;;;;;;;12.80;5.47;;;;;;;11.67;69.18;101653.84;4953161;28;20479;-80
2023/12/26 10:55:36;;;;;;;14.15;5.53;;;;;;;11.65;69.86;101658.47;4959275;28;20233;-80
2023/12/26 10:58:17;;;;;;;;;;;;;;;11.60;69.77;101649.13;4949694;28;20058;-79
2023/12/26 13:51:40;;;;;;;17.15;6.88;;;;;;;12.53;66.86;101551.25;4924315;28;20387;-80
2023/12/26 13:54:50;;;;;;;20.42;5.85;;;;;;;12.50;67.17;101554.16;4890325;28;20160;-81
2023/12/26 13:57:58;;;;;;;19.65;5.60;;;;;;;12.16;67.48;101509.00;4894318;28;20093;-82
2023/12/26 14:01:08;;;;;;;20.13;5.90;;;;;;;12.46;67.46;101568.69;4924584;28;20046;-81
2023/12/26 14:03:48;;;;;;;18.42;9.95;;;;;;;12.40;68.38;101540.75;4931383;28;20080;-81
2023/12/26 14:06:26;;;;;;;12.90;5.53;;;;;;;12.41;67.35;101528.28;4918955;28;20467;-80
2023/12/26 14:08:55;;;;;;;14.70;6.10;;;;;;;12.07;68.36;101461.81;4909998;28;20598;-81
2023/12/26 14:11:26;;;;;;;8.73;4.80;;;;;;;12.53;67.87;101527.28;4896747;28;20338;-80
2023/12/26 14:13:57;;;;;;;15.90;4.65;;;;;;;12.26;66.50;101481.59;4926048;28;20428;-79
2023/12/26 14:16:28;;;;;;;10.77;4.70;;;;;;;12.42;66.32;101523.81;4932165;28;20731;-80
2023/12/26 14:19:05;;;;;;;15.20;5.85;;;;;;;12.48;66.77;101534.81;4936152;28;20057;-81
2023/12/26 14:21:35;;;;;;;14.70;5.20;;;;;;;12.54;67.31;101558.25;4919169;28;20159;-80